FMCZ

Dzaoudzi Pamandzi International Airport

Dzaoudzi, Mayotte
TAF FMCZ 252300Z 2600/2624 VRB03KT 9999 FEW024 BECMG 2604/2605 18010KT TEMPO 2606/2616 16015KT
Issued Valid From Valid To
Apr-25 @ 23:00 UTC
(5 hours ago)
Apr-26 @ 00:00 UTC
(4 hours ago)
Apr-27 @ 00:00 UTC
(in 20 hours)
Apr-26 @ 00:00 to Apr-26 @ 04:00
TAF FMCZ 252300Z 2600/2624 VRB03KT 9999 FEW024
Wind Visibility Clouds
Variable at 3 knots 10,000+ meters
  • Few at 2,400' AGL
Becoming Apr-26 @ 04:00 to Apr-27 @ 00:00
BECMG 2604/2605 18010KT
Wind Visibility Clouds
180° at 10 knots 10,000+ meters
  • Few at 2,400' AGL
Temporary Apr-26 @ 06:00 to Apr-26 @ 16:00
TEMPO 2606/2616 16015KT
Wind
160° at 15 knots
TAF FMCZ 252300Z 2600/2624 VRB03KT 9999 FEW024 BECMG 2604/2605 18010KT TEMPO 2606/2616 16015KT
Issued Apr-25 @ 23:00 UTC
(5 hours ago)
Valid From Apr-26 @ 00:00 UTC
(4 hours ago)
Valid To Apr-27 @ 00:00 UTC
(in 20 hours)
Apr-26 @ 00:00 - Apr-26 @ 04:00
Wind Visibility
Variable at 3 knots 10,000+ meters
Clouds
  • Few at 2,400' AGL
Becoming Apr-26 @ 04:00 - Apr-27 @ 00:00
Wind Visibility
180° at 10 knots 10,000+ meters
Clouds
  • Few at 2,400' AGL
Temporary Apr-26 @ 06:00 - Apr-26 @ 16:00
Wind
160° at 15 knots